createdAt,value
2022-10-27T00:01:03.785Z,101517.20
2022-10-27T00:03:37.272Z,101510.40
2022-10-27T00:06:07.985Z,101507.20
2022-10-27T00:08:37.394Z,101505.60
2022-10-27T00:11:07.166Z,101509.20
2022-10-27T00:13:36.680Z,101510.80
2022-10-27T00:16:10.120Z,101506.60
2022-10-27T00:18:38.586Z,101511.80
2022-10-27T00:21:20.479Z,101509.60
2022-10-27T00:23:50.885Z,101514.20
2022-10-27T00:26:21.811Z,101519.40
2022-10-27T00:28:49.659Z,101528.00
2022-10-27T00:31:22.880Z,101529.40
2022-10-27T00:33:51.704Z,101531.80
2022-10-27T00:36:23.018Z,101526.20
2022-10-27T00:38:59.554Z,101526.00
2022-10-27T00:41:41.821Z,101521.60
2022-10-27T00:44:31.665Z,101524.60
2022-10-27T00:47:25.282Z,101531.20
2022-10-27T00:50:08.069Z,101524.00
2022-10-27T00:52:50.713Z,101525.00
2022-10-27T00:55:36.465Z,101529.60
2022-10-27T00:58:10.033Z,101530.60
2022-10-27T01:00:40.857Z,101531.40
2022-10-27T01:03:13.342Z,101530.60
2022-10-27T01:05:43.404Z,101527.40
2022-10-27T01:08:12.974Z,101527.20
2022-10-27T01:10:40.799Z,101523.00
2022-10-27T01:13:08.716Z,101519.60
2022-10-27T01:16:10.264Z,101519.40
2022-10-27T01:19:22.146Z,101523.60
2022-10-27T01:25:03.903Z,101529.20
2022-10-27T01:28:08.995Z,101529.20
2022-10-27T01:31:01.263Z,101527.20
2022-10-27T01:33:49.425Z,101530.20
2022-10-27T01:36:31.566Z,101533.60
2022-10-27T01:39:27.497Z,101533.00
2022-10-27T01:42:06.079Z,101531.40
2022-10-27T01:44:41.600Z,101536.60
2022-10-27T01:47:12.044Z,101533.80
2022-10-27T01:49:43.068Z,101526.00
2022-10-27T01:52:49.214Z,101522.00
2022-10-27T01:55:56.494Z,101521.80
2022-10-27T01:58:46.615Z,101522.40
2022-10-27T02:01:37.887Z,101517.20
2022-10-27T02:04:52.555Z,101521.80
2022-10-27T02:07:46.066Z,101516.20
2022-10-27T02:10:23.456Z,101522.00
2022-10-27T02:12:52.777Z,101517.60
2022-10-27T02:15:37.131Z,101519.00
2022-10-27T02:18:34.078Z,101527.40
2022-10-27T02:21:07.828Z,101518.40
2022-10-27T02:23:36.574Z,101520.80
2022-10-27T02:26:19.573Z,101525.80
2022-10-27T02:29:01.728Z,101527.40
2022-10-27T02:31:44.409Z,101529.40
2022-10-27T02:34:13.280Z,101526.40
2022-10-27T02:36:41.119Z,101520.60
2022-10-27T02:39:08.825Z,101523.60
2022-10-27T02:41:36.551Z,101521.20
2022-10-27T02:44:04.508Z,101525.60
2022-10-27T02:46:32.222Z,101522.00
2022-10-27T02:49:00.037Z,101521.80
2022-10-27T02:51:27.771Z,101522.00
2022-10-27T02:53:55.751Z,101524.40
2022-10-27T02:56:23.435Z,101524.80
2022-10-27T02:58:51.196Z,101526.60
2022-10-27T03:01:18.934Z,101527.60
2022-10-27T03:03:46.853Z,101524.00
2022-10-27T03:06:14.661Z,101524.40
2022-10-27T03:08:42.368Z,101525.60
2022-10-27T03:11:10.142Z,101521.40
2022-10-27T03:13:37.987Z,101523.00
2022-10-27T03:16:06.108Z,101525.20
2022-10-27T03:18:33.896Z,101526.60
2022-10-27T03:21:01.613Z,101528.40
2022-10-27T03:23:30.165Z,101524.60
2022-10-27T03:26:00.151Z,101523.40
2022-10-27T03:28:30.435Z,101521.20
2022-10-27T03:30:58.149Z,101526.60
2022-10-27T03:33:25.831Z,101527.00
2022-10-27T03:35:53.805Z,101522.20
2022-10-27T03:38:21.704Z,101525.80
2022-10-27T03:40:49.548Z,101528.60
2022-10-27T03:43:17.330Z,101524.80
2022-10-27T03:45:51.591Z,101523.20
2022-10-27T03:48:19.306Z,101520.20
2022-10-27T03:50:50.158Z,101525.40
2022-10-27T03:53:18.939Z,101522.40
2022-10-27T03:55:48.804Z,101527.80
2022-10-27T03:58:18.577Z,101533.60
2022-10-27T04:00:47.075Z,101542.60
2022-10-27T04:03:14.845Z,101539.20
2022-10-27T04:05:42.637Z,101543.20
2022-10-27T04:08:10.406Z,101538.60
2022-10-27T04:10:38.139Z,101544.60
2022-10-27T04:13:05.999Z,101549.00
2022-10-27T04:15:33.763Z,101542.00
2022-10-27T04:18:01.454Z,101545.40
2022-10-27T04:20:30.186Z,101548.60
2022-10-27T04:22:59.833Z,101546.00
2022-10-27T04:25:27.853Z,101556.40
2022-10-27T04:28:02.730Z,101550.80
2022-10-27T04:30:30.567Z,101558.60
2022-10-27T04:32:58.419Z,101562.80
2022-10-27T04:35:26.621Z,101565.80
2022-10-27T04:37:58.275Z,101562.40
2022-10-27T04:40:26.338Z,101558.80
2022-10-27T04:42:54.126Z,101555.20
2022-10-27T04:45:22.835Z,101552.40
2022-10-27T04:47:50.795Z,101552.00
2022-10-27T04:50:19.355Z,101553.80
2022-10-27T04:53:02.281Z,101552.60
2022-10-27T04:55:33.567Z,101550.60
2022-10-27T04:58:05.553Z,101553.80
2022-10-27T05:00:36.701Z,101563.80
2022-10-27T05:03:04.570Z,101562.60
2022-10-27T05:05:32.607Z,101564.40
2022-10-27T05:08:03.386Z,101560.60
2022-10-27T05:10:34.313Z,101561.00
2022-10-27T05:13:02.452Z,101564.20
2022-10-27T05:15:30.594Z,101567.00
2022-10-27T05:17:59.029Z,101568.00
2022-10-27T05:20:26.787Z,101565.80
2022-10-27T05:22:54.611Z,101571.80
2022-10-27T05:25:22.343Z,101576.80
2022-10-27T05:27:50.396Z,101580.80
2022-10-27T05:30:18.775Z,101582.60
2022-10-27T05:32:47.628Z,101577.00
2022-10-27T05:35:15.694Z,101577.20
2022-10-27T05:37:45.546Z,101586.00
2022-10-27T05:40:14.687Z,101588.80
2022-10-27T05:42:56.787Z,101592.00
2022-10-27T05:45:25.213Z,101591.80
2022-10-27T05:48:02.171Z,101597.60
2022-10-27T05:50:30.466Z,101601.60
2022-10-27T05:52:58.666Z,101604.00
2022-10-27T05:55:27.499Z,101597.80
2022-10-27T05:58:05.006Z,101596.60
2022-10-27T06:00:37.032Z,101593.40
2022-10-27T06:03:08.142Z,101592.60
2022-10-27T06:05:37.479Z,101591.60
2022-10-27T06:08:05.611Z,101588.80
2022-10-27T06:10:33.401Z,101585.80
2022-10-27T06:13:06.736Z,101585.00
2022-10-27T06:15:35.318Z,101594.80
2022-10-27T06:18:03.734Z,101596.20
2022-10-27T06:20:31.523Z,101592.00
2022-10-27T06:22:59.744Z,101593.40
2022-10-27T06:25:27.450Z,101592.60
2022-10-27T06:27:56.247Z,101582.60
2022-10-27T06:30:24.231Z,101579.40
2022-10-27T06:32:52.402Z,101586.80
2022-10-27T06:35:20.976Z,101589.20
2022-10-27T06:37:48.894Z,101592.60
2022-10-27T06:40:20.283Z,101597.80
2022-10-27T06:43:07.715Z,101601.40
2022-10-27T06:45:37.407Z,101607.80
2022-10-27T06:48:08.740Z,101617.80
2022-10-27T06:50:37.012Z,101608.20
2022-10-27T06:53:05.400Z,101598.40
2022-10-27T06:55:33.872Z,101601.00
2022-10-27T06:58:01.682Z,101606.00
2022-10-27T07:00:30.460Z,101609.00
2022-10-27T07:02:58.450Z,101606.80
2022-10-27T07:05:26.608Z,101609.80
2022-10-27T07:07:54.929Z,101626.60
2022-10-27T07:10:23.358Z,101634.40
2022-10-27T07:12:56.546Z,101634.60
2022-10-27T07:15:27.971Z,101632.20
2022-10-27T07:18:02.662Z,101634.00
2022-10-27T07:20:33.606Z,101635.20
2022-10-27T07:23:03.212Z,101636.20
2022-10-27T07:25:33.727Z,101636.60
2022-10-27T07:28:04.985Z,101636.00
2022-10-27T07:30:38.630Z,101631.40
2022-10-27T07:33:06.986Z,101634.40
2022-10-27T07:35:35.311Z,101637.80
2022-10-27T07:38:03.053Z,101634.40
2022-10-27T07:40:33.200Z,101635.60
2022-10-27T07:43:05.302Z,101636.80
2022-10-27T07:45:40.879Z,101632.40
2022-10-27T07:48:14.740Z,101636.40
2022-10-27T07:50:45.086Z,101636.40
2022-10-27T07:53:15.727Z,101637.60
2022-10-27T07:55:43.849Z,101639.40
2022-10-27T07:58:15.798Z,101641.60
2022-10-27T08:00:46.805Z,101640.60
2022-10-27T08:03:21.938Z,101644.80
2022-10-27T08:05:50.122Z,101651.00
2022-10-27T08:08:18.938Z,101644.80
2022-10-27T08:10:49.906Z,101649.80
2022-10-27T08:13:17.781Z,101656.40
2022-10-27T08:15:45.777Z,101656.40
2022-10-27T08:18:14.564Z,101657.80
2022-10-27T08:20:46.092Z,101666.00
2022-10-27T08:23:17.232Z,101658.00
2022-10-27T08:25:45.450Z,101659.60
2022-10-27T08:28:15.233Z,101656.20
2022-10-27T08:30:51.984Z,101664.00
2022-10-27T08:33:22.819Z,101661.00
2022-10-27T08:35:51.691Z,101660.80
2022-10-27T08:38:20.523Z,101662.20
2022-10-27T08:41:08.553Z,101659.20
2022-10-27T08:44:03.958Z,101665.00
2022-10-27T08:46:44.792Z,101660.60
2022-10-27T08:49:35.550Z,101653.00
2022-10-27T08:52:15.285Z,101650.60
2022-10-27T08:54:51.540Z,101657.60
2022-10-27T08:57:28.380Z,101663.60
2022-10-27T08:59:58.444Z,101668.60
2022-10-27T09:03:23.611Z,101667.20
2022-10-27T09:06:11.532Z,101675.40
2022-10-27T09:09:10.037Z,101679.60
2022-10-27T09:11:49.821Z,101675.40
2022-10-27T09:15:07.190Z,101676.80
2022-10-27T09:17:43.078Z,101677.00
2022-10-27T09:20:36.410Z,101671.00
2022-10-27T09:23:12.929Z,101668.40
2022-10-27T09:25:42.808Z,101668.60
2022-10-27T09:28:22.820Z,101669.40
2022-10-27T09:30:53.283Z,101666.40
2022-10-27T09:33:28.913Z,101664.00
2022-10-27T09:35:57.906Z,101663.40
2022-10-27T09:38:27.825Z,101665.80
2022-10-27T09:40:55.997Z,101657.60
2022-10-27T09:43:24.355Z,101659.40
2022-10-27T09:46:06.531Z,101660.80
2022-10-27T09:48:35.163Z,101658.20
2022-10-27T09:51:14.564Z,101659.20
2022-10-27T09:53:48.989Z,101663.60
2022-10-27T09:56:33.149Z,101667.20
2022-10-27T09:59:04.590Z,101664.40
2022-10-27T10:01:57.430Z,101668.60
2022-10-27T10:04:31.773Z,101665.20
2022-10-27T10:07:05.020Z,101669.60
2022-10-27T10:09:35.596Z,101668.80
2022-10-27T10:12:23.366Z,101677.20
2022-10-27T10:15:12.826Z,101677.00
2022-10-27T10:17:44.176Z,101674.20
2022-10-27T10:23:35.440Z,101674.40
2022-10-27T10:26:19.577Z,101677.40
2022-10-27T10:28:54.972Z,101679.00
2022-10-27T10:31:29.328Z,101679.00
2022-10-27T10:34:23.785Z,101679.60
2022-10-27T10:36:51.679Z,101682.60
2022-10-27T10:39:27.529Z,101685.40
2022-10-27T10:42:10.992Z,101677.80
2022-10-27T10:44:39.040Z,101678.80
2022-10-27T10:47:22.554Z,101673.00
2022-10-27T10:49:57.077Z,101675.00
2022-10-27T10:52:39.490Z,101677.40
2022-10-27T10:55:20.151Z,101678.00
2022-10-27T10:57:55.126Z,101684.60
2022-10-27T11:00:23.829Z,101686.40
2022-10-27T11:03:01.675Z,101688.60
2022-10-27T11:05:34.250Z,101690.20
2022-10-27T11:08:05.603Z,101689.20
2022-10-27T11:10:43.196Z,101688.40
2022-10-27T11:13:23.932Z,101683.00
2022-10-27T11:16:01.790Z,101683.40
2022-10-27T11:18:51.470Z,101685.80
2022-10-27T11:21:35.866Z,101687.00
2022-10-27T11:24:22.743Z,101684.80
2022-10-27T11:27:08.084Z,101686.60
2022-10-27T11:30:10.536Z,101685.80
2022-10-27T11:32:53.873Z,101689.60
2022-10-27T11:36:04.238Z,101689.80
2022-10-27T11:38:51.950Z,101692.60
2022-10-27T11:41:52.098Z,101688.40
2022-10-27T11:44:35.263Z,101689.80
2022-10-27T11:47:39.479Z,101691.40
2022-10-27T11:50:15.856Z,101696.60
2022-10-27T11:52:51.457Z,101700.40
2022-10-27T11:55:34.717Z,101701.40
2022-10-27T11:58:26.189Z,101699.60
2022-10-27T12:01:08.537Z,101692.20
2022-10-27T12:04:07.758Z,101691.00
2022-10-27T12:07:08.247Z,101697.80
2022-10-27T12:09:45.112Z,101695.00
2022-10-27T12:12:39.801Z,101692.60
2022-10-27T12:15:39.874Z,101696.00
2022-10-27T12:18:25.298Z,101695.60
2022-10-27T12:21:02.698Z,101697.60
2022-10-27T12:23:45.018Z,101692.40
2022-10-27T12:26:42.465Z,101685.80
2022-10-27T12:29:13.694Z,101691.20
2022-10-27T12:32:25.148Z,101685.80
2022-10-27T12:35:05.314Z,101687.40
2022-10-27T12:38:19.971Z,101688.20
2022-10-27T12:41:08.242Z,101683.40
2022-10-27T12:43:55.906Z,101687.80
2022-10-27T12:46:43.482Z,101685.40
2022-10-27T12:49:23.756Z,101691.00
2022-10-27T12:52:23.348Z,101689.40
2022-10-27T12:55:15.524Z,101689.60
2022-10-27T12:58:01.648Z,101689.20
2022-10-27T13:00:44.611Z,101692.20
2022-10-27T13:03:23.852Z,101691.20
2022-10-27T13:06:33.141Z,101697.60
2022-10-27T13:09:28.945Z,101700.20
2022-10-27T13:12:27.992Z,101695.20
2022-10-27T13:15:31.023Z,101698.00
2022-10-27T13:18:01.830Z,101703.80
2022-10-27T13:20:56.554Z,101707.60
2022-10-27T13:24:09.854Z,101714.80
2022-10-27T13:26:54.301Z,101713.80
2022-10-27T13:29:36.829Z,101714.80
2022-10-27T13:32:20.043Z,101711.40
2022-10-27T13:34:59.990Z,101710.00
2022-10-27T13:37:41.013Z,101711.20
2022-10-27T13:40:41.504Z,101713.00
2022-10-27T13:43:21.915Z,101718.00
2022-10-27T13:45:56.184Z,101719.40
2022-10-27T13:48:23.994Z,101723.60
2022-10-27T13:50:56.003Z,101724.20
2022-10-27T13:53:26.446Z,101725.60
2022-10-27T13:56:37.427Z,101722.20
2022-10-27T13:59:20.020Z,101726.20
2022-10-27T14:01:58.815Z,101728.40
2022-10-27T14:04:51.235Z,101730.20
2022-10-27T14:07:19.288Z,101733.40
2022-10-27T14:09:51.082Z,101736.20
2022-10-27T14:12:36.509Z,101736.40
2022-10-27T14:15:20.502Z,101740.40
2022-10-27T14:17:49.571Z,101740.40
2022-10-27T14:20:30.099Z,101746.00
2022-10-27T14:23:11.077Z,101755.40
2022-10-27T14:25:39.138Z,101751.80
2022-10-27T14:28:12.925Z,101752.60
2022-10-27T14:30:46.126Z,101753.60
2022-10-27T14:33:23.769Z,101746.40
2022-10-27T14:36:30.655Z,101750.00
2022-10-27T14:39:25.219Z,101749.40
2022-10-27T14:42:02.996Z,101753.60
2022-10-27T14:44:36.013Z,101759.40
2022-10-27T14:47:11.658Z,101756.00
2022-10-27T14:49:50.990Z,101748.00
2022-10-27T14:52:34.511Z,101748.80
2022-10-27T14:55:02.497Z,101748.00
2022-10-27T14:57:37.274Z,101756.00
2022-10-27T15:00:30.928Z,101756.60
2022-10-27T15:03:04.025Z,101754.40
2022-10-27T15:05:46.487Z,101760.60
2022-10-27T15:08:21.705Z,101756.20
2022-10-27T15:10:53.506Z,101749.00
2022-10-27T15:13:25.084Z,101747.60
2022-10-27T15:15:59.374Z,101743.20
2022-10-27T15:18:36.504Z,101748.40
2022-10-27T15:21:27.165Z,101747.40
2022-10-27T15:24:07.329Z,101749.40
2022-10-27T15:26:35.352Z,101754.20
2022-10-27T15:31:42.853Z,101756.40
2022-10-27T15:34:33.569Z,101756.40
2022-10-27T15:37:30.896Z,101756.80
2022-10-27T15:40:31.953Z,101765.80
2022-10-27T15:43:02.495Z,101768.80
2022-10-27T15:45:51.015Z,101769.00
2022-10-27T15:48:33.926Z,101766.40
2022-10-27T15:51:14.515Z,101769.00
2022-10-27T15:53:57.714Z,101770.40
2022-10-27T15:56:39.604Z,101771.00
2022-10-27T15:59:20.513Z,101771.20
2022-10-27T16:01:51.811Z,101773.60
2022-10-27T16:04:35.210Z,101779.80
2022-10-27T16:07:11.981Z,101779.20
2022-10-27T16:09:45.809Z,101779.40
2022-10-27T16:12:17.233Z,101777.00
2022-10-27T16:14:54.064Z,101782.40
2022-10-27T16:17:26.315Z,101779.80
2022-10-27T16:20:04.336Z,101778.60
2022-10-27T16:22:32.277Z,101781.20
2022-10-27T16:25:00.329Z,101781.00
2022-10-27T16:27:30.628Z,101779.60
2022-10-27T16:30:02.485Z,101779.80
2022-10-27T16:32:33.849Z,101776.40
2022-10-27T16:35:05.556Z,101774.80
2022-10-27T16:37:34.015Z,101772.80
2022-10-27T16:40:01.712Z,101774.20
2022-10-27T16:42:31.436Z,101775.40
2022-10-27T16:44:59.177Z,101773.60
2022-10-27T16:47:27.035Z,101770.60
2022-10-27T16:49:56.532Z,101767.20
2022-10-27T16:52:25.884Z,101770.40
2022-10-27T16:54:53.636Z,101766.80
2022-10-27T16:59:50.184Z,101763.20
2022-10-27T17:02:17.996Z,101759.80
2022-10-27T17:04:45.798Z,101763.60
2022-10-27T17:07:13.764Z,101763.60
2022-10-27T17:09:41.664Z,101762.00
2022-10-27T17:12:10.385Z,101764.40
2022-10-27T17:14:38.219Z,101764.20
2022-10-27T17:17:06.082Z,101770.00
2022-10-27T17:19:33.782Z,101768.40
2022-10-27T17:22:01.846Z,101770.40
2022-10-27T17:24:30.507Z,101766.20
2022-10-27T17:26:58.284Z,101767.60
2022-10-27T17:29:26.839Z,101768.40
2022-10-27T17:31:54.605Z,101768.60
2022-10-27T17:34:22.473Z,101767.00
2022-10-27T17:36:50.557Z,101760.40
2022-10-27T17:39:18.573Z,101763.60
2022-10-27T17:41:46.800Z,101756.60
2022-10-27T17:44:14.637Z,101752.40
2022-10-27T17:46:42.297Z,101746.60
2022-10-27T17:49:10.062Z,101748.80
2022-10-27T17:51:37.848Z,101747.40
2022-10-27T17:54:05.675Z,101750.80
2022-10-27T17:56:36.900Z,101751.40
2022-10-27T17:59:14.151Z,101749.80
2022-10-27T18:01:43.223Z,101747.60
2022-10-27T18:04:12.362Z,101743.60
2022-10-27T18:06:42.377Z,101748.60
2022-10-27T18:09:11.438Z,101750.60
2022-10-27T18:11:39.269Z,101748.80
2022-10-27T18:14:14.468Z,101752.00
2022-10-27T18:16:44.387Z,101749.80
2022-10-27T18:19:14.836Z,101753.60
2022-10-27T18:21:46.217Z,101752.00
2022-10-27T18:24:16.834Z,101756.80
2022-10-27T18:26:48.411Z,101754.00
2022-10-27T18:29:18.646Z,101752.80
2022-10-27T18:31:48.791Z,101754.00
2022-10-27T18:34:17.177Z,101750.60
2022-10-27T18:36:45.866Z,101749.40
2022-10-27T18:39:18.847Z,101757.40
2022-10-27T18:41:49.238Z,101758.40
2022-10-27T18:44:17.629Z,101756.60
2022-10-27T18:46:45.465Z,101749.80
2022-10-27T18:49:16.044Z,101751.20
2022-10-27T18:51:48.290Z,101752.60
2022-10-27T18:54:16.334Z,101756.80
2022-10-27T18:56:44.445Z,101749.80
2022-10-27T18:59:13.441Z,101747.40
2022-10-27T19:01:43.540Z,101752.00
2022-10-27T19:04:11.437Z,101756.40
2022-10-27T19:06:39.216Z,101755.00
2022-10-27T19:09:07.174Z,101756.80
2022-10-27T19:11:36.735Z,101761.80
2022-10-27T19:14:05.052Z,101762.20
2022-10-27T19:16:33.058Z,101764.80
2022-10-27T19:19:01.363Z,101765.80
2022-10-27T19:21:30.502Z,101765.00
2022-10-27T19:24:02.508Z,101754.80
2022-10-27T19:26:34.833Z,101758.20
2022-10-27T19:29:03.016Z,101760.40
2022-10-27T19:31:38.653Z,101758.80
2022-10-27T19:34:10.094Z,101757.80
2022-10-27T19:36:40.559Z,101759.60
2022-10-27T19:39:11.438Z,101753.60
2022-10-27T19:41:40.268Z,101758.80
2022-10-27T19:44:08.150Z,101752.20
2022-10-27T19:46:36.009Z,101752.00
2022-10-27T19:49:12.972Z,101753.40
2022-10-27T19:51:40.871Z,101751.20
2022-10-27T19:54:19.149Z,101747.00
2022-10-27T19:56:48.659Z,101747.60
2022-10-27T19:59:19.838Z,101753.00
2022-10-27T20:01:51.774Z,101755.80
2022-10-27T20:04:22.934Z,101749.00
2022-10-27T20:06:50.794Z,101754.00
2022-10-27T20:09:21.449Z,101753.20
2022-10-27T20:11:50.199Z,101755.80
2022-10-27T20:14:18.183Z,101759.60
2022-10-27T20:16:47.235Z,101762.40
2022-10-27T20:19:22.022Z,101757.60
2022-10-27T20:21:50.998Z,101757.20
2022-10-27T20:24:20.634Z,101756.40
2022-10-27T20:29:25.746Z,101755.60
2022-10-27T20:31:55.271Z,101750.20
2022-10-27T20:34:23.103Z,101749.80
2022-10-27T20:36:50.810Z,101754.20
2022-10-27T20:39:22.358Z,101756.40
2022-10-27T20:41:50.178Z,101756.00
2022-10-27T20:44:17.887Z,101751.60
2022-10-27T20:46:45.638Z,101748.60
2022-10-27T20:49:13.343Z,101748.20
2022-10-27T20:51:41.113Z,101749.80
2022-10-27T20:54:13.957Z,101752.40
2022-10-27T20:56:41.704Z,101744.80
2022-10-27T20:59:09.586Z,101749.60
2022-10-27T21:01:40.959Z,101747.00
2022-10-27T21:04:10.952Z,101752.20
2022-10-27T21:06:44.010Z,101751.80
2022-10-27T21:09:15.463Z,101750.00
2022-10-27T21:11:44.859Z,101750.20
2022-10-27T21:14:13.394Z,101751.20
2022-10-27T21:16:41.193Z,101745.80
2022-10-27T21:19:10.480Z,101743.80
2022-10-27T21:21:39.145Z,101743.40
2022-10-27T21:24:08.089Z,101740.20
2022-10-27T21:26:36.937Z,101740.80
2022-10-27T21:29:04.615Z,101740.20
2022-10-27T21:31:33.036Z,101745.00
2022-10-27T21:34:03.664Z,101745.20
2022-10-27T21:36:31.901Z,101741.00
2022-10-27T21:39:00.566Z,101743.20
2022-10-27T21:41:28.557Z,101743.80
2022-10-27T21:43:56.853Z,101743.80
2022-10-27T21:46:28.980Z,101745.00
2022-10-27T21:48:59.872Z,101738.00
2022-10-27T21:51:29.713Z,101736.80
2022-10-27T21:54:03.818Z,101736.60
2022-10-27T21:56:35.185Z,101734.60
2022-10-27T21:59:04.376Z,101735.60
2022-10-27T22:01:32.339Z,101736.40
2022-10-27T22:04:00.456Z,101732.40
2022-10-27T22:06:45.679Z,101733.40
2022-10-27T22:09:13.459Z,101728.20
2022-10-27T22:11:41.214Z,101727.20
2022-10-27T22:14:12.350Z,101725.20
2022-10-27T22:16:40.029Z,101720.80
2022-10-27T22:19:08.834Z,101721.40
2022-10-27T22:21:39.460Z,101721.60
2022-10-27T22:24:08.099Z,101722.20
2022-10-27T22:26:41.031Z,101718.40
2022-10-27T22:29:10.432Z,101716.40
2022-10-27T22:31:38.173Z,101721.60
2022-10-27T22:34:05.999Z,101718.00
2022-10-27T22:36:34.655Z,101712.80
2022-10-27T22:39:04.294Z,101708.80
2022-10-27T22:41:35.542Z,101704.40
2022-10-27T22:44:04.349Z,101707.40
2022-10-27T22:46:34.017Z,101702.40
2022-10-27T22:49:02.378Z,101704.00
2022-10-27T22:51:30.286Z,101704.00
2022-10-27T22:53:59.335Z,101705.60
2022-10-27T22:56:33.439Z,101700.00
2022-10-27T22:59:04.296Z,101702.00
2022-10-27T23:01:36.021Z,101700.60
2022-10-27T23:04:07.496Z,101704.60
2022-10-27T23:06:38.006Z,101709.20
2022-10-27T23:09:14.573Z,101710.20
2022-10-27T23:11:43.635Z,101712.60
2022-10-27T23:14:14.239Z,101716.20
2022-10-27T23:16:43.166Z,101709.60
2022-10-27T23:19:13.358Z,101706.40
2022-10-27T23:21:41.248Z,101706.80
2022-10-27T23:24:09.221Z,101702.20
2022-10-27T23:26:39.404Z,101699.00
2022-10-27T23:29:12.701Z,101700.00
2022-10-27T23:31:40.767Z,101700.00
2022-10-27T23:34:11.042Z,101700.60
2022-10-27T23:36:39.498Z,101701.40
2022-10-27T23:39:07.265Z,101695.80
2022-10-27T23:41:35.122Z,101698.60
2022-10-27T23:44:03.017Z,101696.80
2022-10-27T23:46:30.947Z,101690.40
2022-10-27T23:48:59.234Z,101692.40
2022-10-27T23:51:27.975Z,101685.80
2022-10-27T23:53:56.055Z,101688.80
2022-10-27T23:56:25.324Z,101680.20
2022-10-27T23:58:53.250Z,101682.20
